Vacaville, CA (95687)

11:31 AM PDT on August 29, 2016 (GMT -0700)
| | Change Station

Elev -9999 ft 0.00 °N, 0.00 °E | Updated

Clear
Clear
82 °F
Feels Like 82 °F
N
13
Wind Variable Wind from SW
Gusts mph

Today
High -- | Low -- °F
--% Chance of Precip.
Yesterday
High -- | Low -- °F
Precip. -- in
Pressure 30.06 in
Visibility 10.0 miles
Clouds Clear
Dew Point 50 °F
Humidity 34%
Rainfall --
Snow Depth Not available.
6:35 AM 7:41 PM
Waning Crescent, 7% visible
METAR KVCB 291753Z AUTO 19005KT 10SM CLR 24/09 A3006 RMK AO2 SLP179 T02390094 10239 20133 50001
Pressure 30.06 in
Visibility 10.0 miles
Clouds Clear
Dew Point 50 °F
Humidity 34%
Rainfall --
Snow Depth Not available.
6:35 AM 7:41 PM
Waning Crescent, 7% visible
METAR KVCB 291753Z AUTO 19005KT 10SM CLR 24/09 A3006 RMK AO2 SLP179 T02390094 10239 20133 50001

10-Day Weather Forecast

Almanac

Astronomy

Aug. 29, 2016 Rise Set
Actual Time
Civil Twilight
Nautical Twilight
Astronomical Twilight
Moon
Length of Visible Light
Length of Day
Tomorrow will be .
, % of the Moon is Illuminated

Today's Extremes

State Highs State Lows

Community

WunderPhotos

Upload Photos

1,935,685 photos uploaded!

WunderBlog® & News

Nearby

Air Quality

  Air Quality AQ Index Pollutant
Not available.

Snow Depth

Station Depth Elevation

Earthquake Activity

City Distance Mag. Time & Date
Minimum magnitude displayed is 2.5.

Coastal Water Temperatures

Place Temperature

Stations

Nearby Weather Stations

Station Location Temp. Windchill Dew Point Humidity Wind Precip. Elev Updated Type
                   

Watches & Warnings

There are currently no watches in effect.